createdAt,value
2022-10-16T00:01:37.877Z,100414.00
2022-10-16T00:04:05.953Z,100427.50
2022-10-16T00:06:33.653Z,100423.59
2022-10-16T00:09:02.890Z,100431.19
2022-10-16T00:11:34.216Z,100434.50
2022-10-16T00:14:03.430Z,100433.56
2022-10-16T00:16:31.190Z,100433.22
2022-10-16T00:18:59.237Z,100437.38
2022-10-16T00:21:28.823Z,100442.44
2022-10-16T00:24:00.029Z,100441.63
2022-10-16T00:26:30.861Z,100443.88
2022-10-16T00:28:58.811Z,100442.00
2022-10-16T00:31:28.609Z,100446.13
2022-10-16T00:33:56.319Z,100451.38
2022-10-16T00:36:26.417Z,100453.47
2022-10-16T00:38:55.433Z,100447.22
2022-10-16T00:41:25.317Z,100453.47
2022-10-16T00:43:56.665Z,100456.56
2022-10-16T00:46:26.258Z,100462.28
2022-10-16T00:49:01.516Z,100453.13
2022-10-16T00:51:33.510Z,100455.03
2022-10-16T00:54:01.869Z,100449.09
2022-10-16T00:56:29.728Z,100460.47
2022-10-16T00:59:00.438Z,100456.09
2022-10-16T01:01:28.308Z,100458.22
2022-10-16T01:03:55.972Z,100464.75
2022-10-16T01:06:27.056Z,100464.13
2022-10-16T01:09:09.167Z,100456.09
2022-10-16T01:11:43.952Z,100462.03
2022-10-16T01:14:19.460Z,100457.38
2022-10-16T01:16:54.263Z,100452.03
2022-10-16T01:19:33.162Z,100455.38
2022-10-16T01:22:02.783Z,100452.41
2022-10-16T01:24:40.408Z,100444.47
2022-10-16T01:27:15.302Z,100461.28
2022-10-16T01:29:50.606Z,100469.25
2022-10-16T01:32:21.493Z,100476.13
2022-10-16T01:34:53.284Z,100477.19
2022-10-16T01:37:31.469Z,100470.88
2022-10-16T01:40:02.550Z,100471.13
2022-10-16T01:42:36.854Z,100482.03
2022-10-16T01:45:08.717Z,100478.88
2022-10-16T01:47:38.192Z,100482.66
2022-10-16T01:50:08.665Z,100489.41
2022-10-16T01:52:39.087Z,100489.97
2022-10-16T01:55:09.785Z,100483.69
2022-10-16T01:57:43.157Z,100484.19
2022-10-16T02:00:14.051Z,100485.25
2022-10-16T02:02:46.859Z,100488.66
2022-10-16T02:05:21.967Z,100475.50
2022-10-16T02:07:50.160Z,100484.97
2022-10-16T02:10:18.061Z,100487.69
2022-10-16T02:12:52.022Z,100489.84
2022-10-16T02:15:19.809Z,100496.81
2022-10-16T02:17:47.527Z,100495.75
2022-10-16T02:20:15.477Z,100501.81
2022-10-16T02:22:47.612Z,100500.75
2022-10-16T02:25:21.642Z,100497.41
2022-10-16T02:27:57.373Z,100502.38
2022-10-16T02:30:31.065Z,100507.84
2022-10-16T02:33:01.967Z,100516.03
2022-10-16T02:35:30.404Z,100526.94
2022-10-16T02:37:59.557Z,100507.25
2022-10-16T02:40:28.659Z,100508.47
2022-10-16T02:42:57.758Z,100497.06
2022-10-16T02:45:26.038Z,100499.56
2022-10-16T02:47:53.916Z,100498.25
2022-10-16T02:50:21.573Z,100503.72
2022-10-16T02:52:49.261Z,100505.38
2022-10-16T02:55:17.051Z,100502.66
2022-10-16T02:57:44.958Z,100508.34
2022-10-16T03:00:16.829Z,100514.63
2022-10-16T03:02:44.890Z,100509.16
2022-10-16T03:05:12.747Z,100508.13
2022-10-16T03:07:40.712Z,100510.84
2022-10-16T03:10:09.301Z,100504.66
2022-10-16T03:12:36.964Z,100506.31
2022-10-16T03:15:05.581Z,100504.06
2022-10-16T03:17:35.639Z,100514.38
2022-10-16T03:20:03.498Z,100519.84
2022-10-16T03:22:31.382Z,100525.28
2022-10-16T03:24:59.012Z,100521.94
2022-10-16T03:27:27.228Z,100519.22
2022-10-16T03:29:55.144Z,100519.47
2022-10-16T03:32:23.104Z,100511.88
2022-10-16T03:34:52.131Z,100508.94
2022-10-16T03:37:19.769Z,100513.06
2022-10-16T03:39:47.722Z,100509.03
2022-10-16T03:42:15.359Z,100509.03
2022-10-16T03:44:42.997Z,100514.50
2022-10-16T03:47:10.675Z,100512.84
2022-10-16T03:49:38.334Z,100504.66
2022-10-16T03:52:07.350Z,100514.38
2022-10-16T03:54:35.100Z,100515.75
2022-10-16T03:57:02.744Z,100511.78
2022-10-16T03:59:30.380Z,100513.53
2022-10-16T04:01:58.078Z,100523.47
2022-10-16T04:04:26.580Z,100516.22
2022-10-16T04:06:54.192Z,100522.03
2022-10-16T04:09:23.178Z,100516.81
2022-10-16T04:11:50.834Z,100520.97
2022-10-16T04:14:18.526Z,100523.72
2022-10-16T04:16:46.181Z,100534.59
2022-10-16T04:19:14.191Z,100547.84
2022-10-16T04:21:41.984Z,100545.50
2022-10-16T04:24:09.652Z,100551.78
2022-10-16T04:26:38.685Z,100542.78
2022-10-16T04:29:07.037Z,100539.44
2022-10-16T04:31:34.713Z,100545.34
2022-10-16T04:34:02.392Z,100544.50
2022-10-16T04:36:30.014Z,100551.41
2022-10-16T04:38:57.721Z,100560.19
2022-10-16T04:41:25.432Z,100559.13
2022-10-16T04:43:54.404Z,100547.63
2022-10-16T04:46:22.029Z,100549.28
2022-10-16T04:48:49.678Z,100555.78
2022-10-16T04:51:17.320Z,100543.00
2022-10-16T04:53:44.971Z,100538.16
2022-10-16T04:56:12.601Z,100556.41
2022-10-16T04:58:40.302Z,100557.59
2022-10-16T05:01:09.266Z,100548.59
2022-10-16T05:03:37.153Z,100555.94
2022-10-16T05:06:07.205Z,100560.78
2022-10-16T05:08:35.016Z,100561.63
2022-10-16T05:11:02.818Z,100574.19
2022-10-16T05:13:30.485Z,100572.75
2022-10-16T05:15:58.161Z,100579.09
2022-10-16T05:18:27.161Z,100577.06
2022-10-16T05:20:54.855Z,100574.53
2022-10-16T05:23:22.515Z,100574.13
2022-10-16T05:26:00.690Z,100586.06
2022-10-16T05:28:29.539Z,100593.00
2022-10-16T05:30:57.497Z,100587.13
2022-10-16T05:33:27.721Z,100597.19
2022-10-16T05:35:55.369Z,100601.38
2022-10-16T05:38:23.103Z,100604.69
2022-10-16T05:40:54.394Z,100596.28
2022-10-16T05:43:22.353Z,100600.09
2022-10-16T05:45:56.119Z,100602.19
2022-10-16T05:48:24.275Z,100596.28
2022-10-16T05:51:00.197Z,100587.03
2022-10-16T05:53:29.088Z,100594.84
2022-10-16T05:55:57.893Z,100597.34
2022-10-16T05:58:26.869Z,100597.72
2022-10-16T06:00:55.873Z,100602.97
2022-10-16T06:03:23.643Z,100608.41
2022-10-16T06:05:51.612Z,100612.78
2022-10-16T06:08:21.885Z,100605.44
2022-10-16T06:10:50.045Z,100603.31
2022-10-16T06:13:17.708Z,100607.31
2022-10-16T06:15:45.351Z,100612.34
2022-10-16T06:18:13.002Z,100612.53
2022-10-16T06:20:40.661Z,100617.25
2022-10-16T06:23:08.301Z,100612.31
2022-10-16T06:25:37.335Z,100625.47
2022-10-16T06:28:05.245Z,100631.00
2022-10-16T06:30:32.977Z,100636.16
2022-10-16T06:33:00.640Z,100643.09
2022-10-16T06:35:30.210Z,100648.31
2022-10-16T06:37:57.952Z,100643.44
2022-10-16T06:40:25.869Z,100646.31
2022-10-16T06:42:56.706Z,100644.28
2022-10-16T06:45:24.478Z,100642.53
2022-10-16T06:47:52.145Z,100656.16
2022-10-16T06:50:19.841Z,100659.88
2022-10-16T06:52:47.508Z,100662.97
2022-10-16T06:55:15.620Z,100663.97
2022-10-16T06:57:43.266Z,100668.38
2022-10-16T07:00:13.237Z,100663.19
2022-10-16T07:02:41.276Z,100664.72
2022-10-16T07:05:09.397Z,100668.88
2022-10-16T07:07:37.136Z,100668.06
2022-10-16T07:10:05.413Z,100662.75
2022-10-16T07:12:33.044Z,100668.22
2022-10-16T07:15:00.699Z,100672.97
2022-10-16T07:17:29.741Z,100678.19
2022-10-16T07:19:57.371Z,100684.31
2022-10-16T07:22:25.339Z,100691.59
2022-10-16T07:24:53.481Z,100687.34
2022-10-16T07:27:23.184Z,100699.72
2022-10-16T07:29:50.880Z,100699.16
2022-10-16T07:32:18.530Z,100689.22
2022-10-16T07:34:47.652Z,100698.69
2022-10-16T07:37:15.282Z,100709.06
2022-10-16T07:39:42.974Z,100712.53
2022-10-16T07:42:10.910Z,100716.13
2022-10-16T07:44:38.663Z,100708.34
2022-10-16T07:47:06.353Z,100720.44
2022-10-16T07:49:34.080Z,100732.56
2022-10-16T07:52:03.072Z,100736.47
2022-10-16T07:54:30.712Z,100740.16
2022-10-16T07:56:58.346Z,100738.50
2022-10-16T07:59:26.168Z,100749.25
2022-10-16T08:01:53.864Z,100743.78
2022-10-16T08:04:21.581Z,100740.00
2022-10-16T08:06:50.606Z,100754.53
2022-10-16T08:09:19.594Z,100755.47
2022-10-16T08:11:47.329Z,100757.25
2022-10-16T08:14:14.934Z,100763.94
2022-10-16T08:16:42.704Z,100773.34
2022-10-16T08:19:10.344Z,100779.03
2022-10-16T08:21:38.335Z,100773.13
2022-10-16T08:24:06.196Z,100772.66
2022-10-16T08:26:35.226Z,100769.06
2022-10-16T08:29:02.952Z,100778.59
2022-10-16T08:31:30.648Z,100774.19
2022-10-16T08:33:58.267Z,100778.72
2022-10-16T08:36:25.964Z,100782.53
2022-10-16T08:38:55.141Z,100777.66
2022-10-16T08:41:59.342Z,100790.88
2022-10-16T08:44:39.637Z,100781.53
2022-10-16T08:47:15.629Z,100789.94
2022-10-16T08:49:55.310Z,100794.47
2022-10-16T08:52:23.196Z,100796.84
2022-10-16T08:54:57.796Z,100795.09
2022-10-16T08:57:27.896Z,100789.75
2022-10-16T09:00:02.296Z,100805.19
2022-10-16T09:02:34.432Z,100799.84
2022-10-16T09:05:24.293Z,100797.34
2022-10-16T09:10:41.836Z,100813.06
2022-10-16T09:13:20.123Z,100807.72
2022-10-16T09:15:58.486Z,100810.72
2022-10-16T09:18:34.109Z,100813.69
2022-10-16T09:21:11.561Z,100814.38
2022-10-16T09:23:39.796Z,100824.03
2022-10-16T09:26:13.341Z,100823.69
2022-10-16T09:28:41.514Z,100828.19
2022-10-16T09:31:17.372Z,100835.19
2022-10-16T09:33:49.083Z,100845.19
2022-10-16T09:36:17.037Z,100834.00
2022-10-16T09:38:44.741Z,100846.88
2022-10-16T09:41:23.765Z,100842.81
2022-10-16T09:43:56.250Z,100837.81
2022-10-16T09:46:29.066Z,100846.13
2022-10-16T09:48:59.622Z,100856.97
2022-10-16T09:51:29.825Z,100852.56
2022-10-16T09:54:00.510Z,100853.16
2022-10-16T09:56:30.132Z,100855.16
2022-10-16T09:58:59.688Z,100857.56
2022-10-16T10:01:33.367Z,100869.81
2022-10-16T10:04:03.742Z,100860.88
2022-10-16T10:06:34.980Z,100854.78
2022-10-16T10:09:15.970Z,100869.53
2022-10-16T10:11:47.206Z,100870.09
2022-10-16T10:14:20.492Z,100881.78
2022-10-16T10:16:50.192Z,100882.03
2022-10-16T10:19:20.222Z,100874.75
2022-10-16T10:21:48.654Z,100885.59
2022-10-16T10:24:18.713Z,100891.59
2022-10-16T10:26:53.123Z,100886.81
2022-10-16T10:29:41.590Z,100893.59
2022-10-16T10:32:24.852Z,100892.16
2022-10-16T10:35:16.444Z,100905.72
2022-10-16T10:38:05.366Z,100897.63
2022-10-16T10:40:45.579Z,100899.66
2022-10-16T10:43:25.002Z,100902.97
2022-10-16T10:45:57.151Z,100912.28
2022-10-16T10:48:55.458Z,100914.78
2022-10-16T10:51:31.470Z,100912.28
2022-10-16T10:54:12.409Z,100912.03
2022-10-16T10:56:46.924Z,100913.84
2022-10-16T10:59:39.203Z,100908.94
2022-10-16T11:02:17.268Z,100898.81
2022-10-16T11:05:00.847Z,100908.94
2022-10-16T11:07:32.026Z,100912.41
2022-10-16T11:10:04.005Z,100910.50
2022-10-16T11:12:37.048Z,100909.06
2022-10-16T11:15:13.392Z,100912.72
2022-10-16T11:17:44.026Z,100917.50
2022-10-16T11:20:19.951Z,100916.53
2022-10-16T11:22:52.141Z,100922.72
2022-10-16T11:25:24.168Z,100912.72
2022-10-16T11:27:56.312Z,100907.59
2022-10-16T11:30:26.364Z,100921.41
2022-10-16T11:33:12.040Z,100920.56
2022-10-16T11:35:51.319Z,100917.59
2022-10-16T11:38:31.240Z,100926.88
2022-10-16T11:41:04.637Z,100930.34
2022-10-16T11:43:38.051Z,100930.47
2022-10-16T11:46:14.033Z,100932.63
2022-10-16T11:48:52.321Z,100935.94
2022-10-16T11:51:33.750Z,100927.34
2022-10-16T11:54:07.379Z,100929.56
2022-10-16T11:56:40.487Z,100932.69
2022-10-16T11:59:18.143Z,100931.56
2022-10-16T12:01:49.949Z,100928.34
2022-10-16T12:04:29.297Z,100928.41
2022-10-16T12:07:04.881Z,100935.56
2022-10-16T12:09:34.508Z,100938.41
2022-10-16T12:12:02.539Z,100950.22
2022-10-16T12:17:29.502Z,100947.38
2022-10-16T12:20:02.396Z,100958.97
2022-10-16T12:22:36.853Z,100953.63
2022-10-16T12:25:07.902Z,100955.34
2022-10-16T12:27:38.715Z,100951.16
2022-10-16T12:30:10.499Z,100944.06
2022-10-16T12:32:52.834Z,100946.03
2022-10-16T12:35:29.134Z,100952.94
2022-10-16T12:38:17.771Z,100947.59
2022-10-16T12:41:07.135Z,100949.25
2022-10-16T12:44:17.323Z,100961.91
2022-10-16T12:46:54.139Z,100954.75
2022-10-16T12:49:45.762Z,100956.31
2022-10-16T12:52:48.957Z,100965.69
2022-10-16T12:55:38.007Z,100962.16
2022-10-16T12:58:45.939Z,100961.16
2022-10-16T13:01:45.453Z,100963.38
2022-10-16T13:04:42.341Z,100976.16
2022-10-16T13:07:28.623Z,100972.41
2022-10-16T13:10:09.038Z,100976.84
2022-10-16T13:13:04.700Z,100993.81
2022-10-16T13:15:44.042Z,100986.97
2022-10-16T13:18:17.933Z,100995.81
2022-10-16T13:21:10.463Z,100996.56
2022-10-16T13:23:44.781Z,100994.06
2022-10-16T13:26:24.753Z,100993.75
2022-10-16T13:28:53.928Z,101002.41
2022-10-16T13:31:24.831Z,101000.88
2022-10-16T13:33:55.632Z,101014.16
2022-10-16T13:36:25.361Z,101015.16
2022-10-16T13:39:06.811Z,101012.03
2022-10-16T13:41:34.449Z,101012.09
2022-10-16T13:44:03.572Z,101008.94
2022-10-16T13:46:35.201Z,101014.69
2022-10-16T13:49:05.085Z,101016.69
2022-10-16T13:51:33.837Z,101011.66
2022-10-16T13:54:01.874Z,101014.16
2022-10-16T13:56:31.973Z,101017.31
2022-10-16T13:59:00.826Z,101016.41
2022-10-16T14:01:33.016Z,101018.44
2022-10-16T14:04:06.830Z,101022.28
2022-10-16T14:06:35.346Z,101023.09
2022-10-16T14:09:10.401Z,101023.94
2022-10-16T14:11:46.173Z,101025.28
2022-10-16T14:14:14.607Z,101038.41
2022-10-16T14:16:45.188Z,101026.75
2022-10-16T14:19:19.685Z,101040.34
2022-10-16T14:21:47.444Z,101042.97
2022-10-16T14:24:24.360Z,101051.69
2022-10-16T14:26:52.248Z,101056.19
2022-10-16T14:29:21.895Z,101041.78
2022-10-16T14:31:59.107Z,101050.84
2022-10-16T14:34:29.920Z,101051.66
2022-10-16T14:37:00.499Z,101051.91
2022-10-16T14:39:28.738Z,101059.75
2022-10-16T14:41:59.769Z,101060.50
2022-10-16T14:44:33.246Z,101058.59
2022-10-16T14:47:09.848Z,101049.63
2022-10-16T14:49:37.937Z,101057.00
2022-10-16T14:52:11.735Z,101063.94
2022-10-16T14:54:40.101Z,101064.78
2022-10-16T14:57:18.676Z,101069.22
2022-10-16T14:59:47.166Z,101069.22
2022-10-16T15:02:24.825Z,101061.94
2022-10-16T15:04:53.450Z,101061.97
2022-10-16T15:07:21.477Z,101075.47
2022-10-16T15:09:49.918Z,101067.38
2022-10-16T15:12:19.128Z,101072.50
2022-10-16T15:14:47.199Z,101078.47
2022-10-16T15:17:17.499Z,101079.53
2022-10-16T15:19:49.643Z,101078.34
2022-10-16T15:22:20.321Z,101080.53
2022-10-16T15:24:50.694Z,101092.56
2022-10-16T15:27:18.818Z,101096.97
2022-10-16T15:29:46.974Z,101105.41
2022-10-16T15:32:15.528Z,101103.16
2022-10-16T15:34:47.735Z,101103.41
2022-10-16T15:37:21.448Z,101100.66
2022-10-16T15:39:54.718Z,101103.03
2022-10-16T15:42:23.189Z,101104.34
2022-10-16T15:44:53.338Z,101105.41
2022-10-16T15:47:22.643Z,101111.13
2022-10-16T15:49:53.028Z,101114.94
2022-10-16T15:52:22.738Z,101119.84
2022-10-16T15:54:53.496Z,101118.41
2022-10-16T15:57:22.628Z,101111.25
2022-10-16T15:59:50.854Z,101109.81
2022-10-16T16:02:19.306Z,101113.88
2022-10-16T16:04:48.006Z,101111.13
2022-10-16T16:07:16.022Z,101108.41
2022-10-16T16:09:46.212Z,101118.28
2022-10-16T16:12:17.560Z,101119.59
2022-10-16T16:14:47.336Z,101125.06
2022-10-16T16:17:17.895Z,101134.97
2022-10-16T16:19:48.077Z,101136.88
2022-10-16T16:22:16.365Z,101138.78
2022-10-16T16:24:47.458Z,101145.13
2022-10-16T16:27:20.980Z,101139.84
2022-10-16T16:29:49.759Z,101140.31
2022-10-16T16:32:18.607Z,101137.59
2022-10-16T16:34:46.877Z,101140.81
2022-10-16T16:37:15.406Z,101136.03
2022-10-16T16:39:45.597Z,101138.63
2022-10-16T16:42:13.762Z,101138.47
2022-10-16T16:44:47.636Z,101143.38
2022-10-16T16:47:25.134Z,101152.03
2022-10-16T16:50:19.917Z,101152.53
2022-10-16T16:53:22.183Z,101167.50
2022-10-16T16:59:32.794Z,101176.06
2022-10-16T17:02:07.430Z,101176.53
2022-10-16T17:04:37.049Z,101176.16
2022-10-16T17:07:05.957Z,101180.78
2022-10-16T17:09:35.579Z,101176.41
2022-10-16T17:12:06.193Z,101168.63
2022-10-16T17:14:34.366Z,101163.41
2022-10-16T17:17:03.826Z,101183.03
2022-10-16T17:19:32.188Z,101198.03
2022-10-16T17:24:29.711Z,101197.19
2022-10-16T17:27:00.086Z,101199.94
2022-10-16T17:29:35.897Z,101199.09
2022-10-16T17:32:05.728Z,101207.53
2022-10-16T17:34:36.972Z,101209.22
2022-10-16T17:37:05.369Z,101211.31
2022-10-16T17:39:35.018Z,101212.84
2022-10-16T17:42:04.661Z,101222.97
2022-10-16T17:44:37.079Z,101212.28
2022-10-16T17:47:07.463Z,101222.59
2022-10-16T17:49:38.316Z,101217.38
2022-10-16T17:52:10.635Z,101213.50
2022-10-16T17:54:41.969Z,101217.38
2022-10-16T17:57:19.651Z,101233.19
2022-10-16T17:59:55.853Z,101231.50
2022-10-16T18:02:30.421Z,101235.31
2022-10-16T18:05:07.315Z,101236.97
2022-10-16T18:07:37.188Z,101245.34
2022-10-16T18:10:11.930Z,101240.63
2022-10-16T18:12:40.826Z,101235.06
2022-10-16T18:15:12.234Z,101244.97
2022-10-16T18:17:41.579Z,101247.22
2022-10-16T18:20:13.777Z,101254.81
2022-10-16T18:22:44.029Z,101267.22
2022-10-16T18:25:11.684Z,101270.56
2022-10-16T18:27:39.415Z,101263.41
2022-10-16T18:30:08.008Z,101264.56
2022-10-16T18:32:37.856Z,101257.06
2022-10-16T18:35:06.567Z,101259.00
2022-10-16T18:37:36.429Z,101253.47
2022-10-16T18:40:04.824Z,101257.06
2022-10-16T18:42:32.821Z,101258.34
2022-10-16T18:45:01.011Z,101266.53
2022-10-16T18:47:30.190Z,101269.06
2022-10-16T18:49:59.295Z,101268.66
2022-10-16T18:52:27.107Z,101268.97
2022-10-16T18:54:57.804Z,101268.81
2022-10-16T18:57:25.972Z,101271.53
2022-10-16T18:59:54.010Z,101274.38
2022-10-16T19:02:21.996Z,101277.16
2022-10-16T19:04:49.883Z,101286.59
2022-10-16T19:07:18.968Z,101293.50
2022-10-16T19:09:46.654Z,101301.25
2022-10-16T19:12:14.937Z,101301.31
2022-10-16T19:14:42.917Z,101295.25
2022-10-16T19:17:10.749Z,101297.75
2022-10-16T19:19:38.682Z,101291.25
2022-10-16T19:22:14.434Z,101288.69
2022-10-16T19:24:45.062Z,101285.16
2022-10-16T19:27:12.738Z,101273.63
2022-10-16T19:29:40.514Z,101273.28
2022-10-16T19:32:08.543Z,101283.97
2022-10-16T19:34:36.373Z,101276.66
2022-10-16T19:37:04.487Z,101271.72
2022-10-16T19:39:32.341Z,101272.13
2022-10-16T19:42:01.384Z,101269.16
2022-10-16T19:44:29.453Z,101274.63
2022-10-16T19:46:57.165Z,101281.13
2022-10-16T19:49:25.007Z,101290.22
2022-10-16T19:51:54.425Z,101291.44
2022-10-16T19:54:22.545Z,101288.28
2022-10-16T19:56:50.400Z,101288.34
2022-10-16T19:59:20.254Z,101298.66
2022-10-16T20:01:48.643Z,101296.97
2022-10-16T20:04:16.768Z,101308.75
2022-10-16T20:06:44.509Z,101303.88
2022-10-16T20:09:12.203Z,101301.16
2022-10-16T20:11:39.902Z,101302.66
2022-10-16T20:14:08.546Z,101308.53
2022-10-16T20:16:37.533Z,101304.09
2022-10-16T20:19:05.261Z,101303.53
2022-10-16T20:21:35.019Z,101313.06
2022-10-16T20:24:04.987Z,101316.41
2022-10-16T20:26:33.030Z,101316.41
2022-10-16T20:29:00.892Z,101317.91
2022-10-16T20:31:30.554Z,101319.81
2022-10-16T20:34:03.224Z,101317.25
2022-10-16T20:36:31.596Z,101316.09
2022-10-16T20:38:59.353Z,101320.44
2022-10-16T20:41:27.034Z,101341.03
2022-10-16T20:43:55.635Z,101338.06
2022-10-16T20:46:24.806Z,101338.06
2022-10-16T20:48:53.910Z,101338.06
2022-10-16T20:51:24.897Z,101343.78
2022-10-16T20:53:55.586Z,101341.88
2022-10-16T20:56:24.917Z,101345.03
2022-10-16T20:58:52.948Z,101339.34
2022-10-16T21:01:23.235Z,101346.78
2022-10-16T21:03:53.032Z,101344.28
2022-10-16T21:06:21.203Z,101345.31
2022-10-16T21:08:50.607Z,101347.25
2022-10-16T21:11:20.621Z,101334.03
2022-10-16T21:13:48.578Z,101331.75
2022-10-16T21:16:16.811Z,101344.19
2022-10-16T21:18:44.959Z,101345.69
2022-10-16T21:21:20.866Z,101338.31
2022-10-16T21:23:50.524Z,101332.44
2022-10-16T21:26:20.951Z,101330.75
2022-10-16T21:28:48.835Z,101340.63
2022-10-16T21:31:19.612Z,101348.84
2022-10-16T21:33:47.968Z,101355.19
2022-10-16T21:36:17.422Z,101356.66
2022-10-16T21:41:18.106Z,101365.28
2022-10-16T21:43:46.311Z,101373.09
2022-10-16T21:46:14.460Z,101363.66
2022-10-16T21:48:43.060Z,101361.09
2022-10-16T21:51:11.859Z,101369.72
2022-10-16T21:53:39.769Z,101357.09
2022-10-16T21:56:14.391Z,101369.06
2022-10-16T21:58:44.263Z,101358.41
2022-10-16T22:01:14.521Z,101351.25
2022-10-16T22:03:42.630Z,101346.66
2022-10-16T22:06:11.739Z,101344.31
2022-10-16T22:08:40.702Z,101355.91
2022-10-16T22:11:10.736Z,101358.88
2022-10-16T22:13:38.518Z,101355.28
2022-10-16T22:16:08.372Z,101346.50
2022-10-16T22:18:37.830Z,101331.34
2022-10-16T22:21:08.056Z,101318.31
2022-10-16T22:23:36.527Z,101329.69
2022-10-16T22:26:07.103Z,101340.59
2022-10-16T22:28:35.485Z,101355.28
2022-10-16T22:31:05.471Z,101351.53
2022-10-16T22:36:09.204Z,101342.09
2022-10-16T22:38:37.807Z,101347.53
2022-10-16T22:41:08.549Z,101351.75
2022-10-16T22:43:37.425Z,101357.19
2022-10-16T22:46:05.922Z,101359.94
2022-10-16T22:48:35.413Z,101351.97
2022-10-16T22:51:03.351Z,101347.75
2022-10-16T22:53:31.003Z,101353.63
2022-10-16T22:55:58.970Z,101359.53
2022-10-16T22:58:27.270Z,101351.34
2022-10-16T23:00:55.379Z,101357.25
2022-10-16T23:03:23.581Z,101349.47
2022-10-16T23:05:53.044Z,101345.69
2022-10-16T23:08:21.037Z,101346.53
2022-10-16T23:10:49.576Z,101343.44
2022-10-16T23:13:17.240Z,101334.19
2022-10-16T23:15:45.851Z,101336.72
2022-10-16T23:18:13.601Z,101335.31
2022-10-16T23:20:41.658Z,101335.91
2022-10-16T23:23:11.017Z,101328.56
2022-10-16T23:25:38.749Z,101323.28
2022-10-16T23:28:06.417Z,101313.25
2022-10-16T23:30:34.133Z,101320.19
2022-10-16T23:33:01.778Z,101326.91
2022-10-16T23:35:29.434Z,101332.81
2022-10-16T23:37:58.114Z,101341.84
2022-10-16T23:40:27.212Z,101337.00
2022-10-16T23:42:54.863Z,101324.41
2022-10-16T23:45:22.472Z,101331.75
2022-10-16T23:47:50.124Z,101324.81
2022-10-16T23:50:17.930Z,101335.31
2022-10-16T23:52:45.692Z,101326.03
2022-10-16T23:55:13.393Z,101322.50
2022-10-16T23:57:42.448Z,101323.75
